sensor_id;sensor_type;location;lat;lon;timestamp;P1;durP1;ratioP1;P2;durP2;ratioP2
55647;SDS011;45266;48.756;9.246;2022-12-29T00:00:07;6.53;;;4.83;;
55647;SDS011;45266;48.756;9.246;2022-12-29T00:01:09;10.00;;;4.80;;
55647;SDS011;45266;48.756;9.246;2022-12-29T00:02:11;7.83;;;4.70;;
55647;SDS011;45266;48.756;9.246;2022-12-29T00:03:14;6.00;;;4.27;;
55647;SDS011;45266;48.756;9.246;2022-12-29T00:04:18;6.57;;;4.47;;
55647;SDS011;45266;48.756;9.246;2022-12-29T00:05:20;5.03;;;4.27;;
55647;SDS011;45266;48.756;9.246;2022-12-29T00:06:21;4.73;;;4.20;;
55647;SDS011;45266;48.756;9.246;2022-12-29T00:07:23;5.97;;;3.93;;
55647;SDS011;45266;48.756;9.246;2022-12-29T00:08:25;5.47;;;4.43;;
55647;SDS011;45266;48.756;9.246;2022-12-29T00:09:42;4.63;;;3.50;;
55647;SDS011;45266;48.756;9.246;2022-12-29T00:10:44;4.53;;;3.83;;
55647;SDS011;45266;48.756;9.246;2022-12-29T00:11:46;5.87;;;4.33;;
55647;SDS011;45266;48.756;9.246;2022-12-29T00:12:48;5.67;;;4.17;;
55647;SDS011;45266;48.756;9.246;2022-12-29T00:14:09;5.17;;;3.93;;
55647;SDS011;45266;48.756;9.246;2022-12-29T00:15:30;5.80;;;3.97;;
55647;SDS011;45266;48.756;9.246;2022-12-29T00:16:38;5.67;;;3.87;;
55647;SDS011;45266;48.756;9.246;2022-12-29T00:17:42;4.93;;;3.47;;
55647;SDS011;45266;48.756;9.246;2022-12-29T00:18:44;6.93;;;3.90;;
55647;SDS011;45266;48.756;9.246;2022-12-29T00:19:46;6.17;;;4.00;;
55647;SDS011;45266;48.756;9.246;2022-12-29T00:21:07;7.07;;;4.27;;
55647;SDS011;45266;48.756;9.246;2022-12-29T00:22:35;4.63;;;3.97;;
55647;SDS011;45266;48.756;9.246;2022-12-29T00:23:55;5.37;;;3.70;;
55647;SDS011;45266;48.756;9.246;2022-12-29T00:25:16;4.47;;;3.60;;
55647;SDS011;45266;48.756;9.246;2022-12-29T00:26:36;4.87;;;3.93;;
55647;SDS011;45266;48.756;9.246;2022-12-29T00:27:57;5.17;;;3.77;;
55647;SDS011;45266;48.756;9.246;2022-12-29T00:29:18;6.13;;;3.80;;
55647;SDS011;45266;48.756;9.246;2022-12-29T00:30:38;7.47;;;3.80;;
55647;SDS011;45266;48.756;9.246;2022-12-29T00:31:58;4.80;;;3.43;;
55647;SDS011;45266;48.756;9.246;2022-12-29T00:33:19;6.90;;;4.00;;
55647;SDS011;45266;48.756;9.246;2022-12-29T00:34:41;5.30;;;3.43;;
55647;SDS011;45266;48.756;9.246;2022-12-29T00:36:02;4.83;;;3.60;;
55647;SDS011;45266;48.756;9.246;2022-12-29T00:37:10;7.57;;;4.07;;
55647;SDS011;45266;48.756;9.246;2022-12-29T00:38:12;5.73;;;3.70;;
55647;SDS011;45266;48.756;9.246;2022-12-29T00:39:33;4.77;;;3.73;;
55647;SDS011;45266;48.756;9.246;2022-12-29T00:40:54;6.80;;;3.83;;
55647;SDS011;45266;48.756;9.246;2022-12-29T00:42:14;4.20;;;3.53;;
55647;SDS011;45266;48.756;9.246;2022-12-29T00:43:39;6.70;;;3.43;;
55647;SDS011;45266;48.756;9.246;2022-12-29T00:45:00;4.67;;;3.77;;
55647;SDS011;45266;48.756;9.246;2022-12-29T00:46:02;5.53;;;3.40;;
55647;SDS011;45266;48.756;9.246;2022-12-29T00:47:04;4.37;;;3.50;;
55647;SDS011;45266;48.756;9.246;2022-12-29T00:48:06;5.20;;;3.67;;
55647;SDS011;45266;48.756;9.246;2022-12-29T00:49:08;4.53;;;3.90;;
55647;SDS011;45266;48.756;9.246;2022-12-29T00:50:30;4.67;;;3.80;;
55647;SDS011;45266;48.756;9.246;2022-12-29T00:51:32;5.33;;;4.20;;
55647;SDS011;45266;48.756;9.246;2022-12-29T00:52:34;6.40;;;3.93;;
55647;SDS011;45266;48.756;9.246;2022-12-29T00:53:35;5.80;;;3.90;;
55647;SDS011;45266;48.756;9.246;2022-12-29T00:54:38;5.70;;;4.30;;
55647;SDS011;45266;48.756;9.246;2022-12-29T00:55:41;4.87;;;3.80;;
55647;SDS011;45266;48.756;9.246;2022-12-29T00:56:45;4.87;;;3.50;;
55647;SDS011;45266;48.756;9.246;2022-12-29T00:57:48;5.00;;;3.60;;
55647;SDS011;45266;48.756;9.246;2022-12-29T00:58:50;4.47;;;3.53;;
55647;SDS011;45266;48.756;9.246;2022-12-29T00:59:52;5.13;;;3.63;;
55647;SDS011;45266;48.756;9.246;2022-12-29T01:01:00;4.37;;;3.40;;
55647;SDS011;45266;48.756;9.246;2022-12-29T01:02:07;4.80;;;3.33;;
55647;SDS011;45266;48.756;9.246;2022-12-29T01:03:10;4.33;;;3.60;;
55647;SDS011;45266;48.756;9.246;2022-12-29T01:04:12;6.37;;;3.40;;
55647;SDS011;45266;48.756;9.246;2022-12-29T01:05:14;5.30;;;3.80;;
55647;SDS011;45266;48.756;9.246;2022-12-29T01:06:18;5.10;;;3.73;;
55647;SDS011;45266;48.756;9.246;2022-12-29T01:07:20;5.03;;;3.27;;
55647;SDS011;45266;48.756;9.246;2022-12-29T01:08:22;6.53;;;4.07;;
55647;SDS011;45266;48.756;9.246;2022-12-29T01:09:23;7.63;;;3.50;;
55647;SDS011;45266;48.756;9.246;2022-12-29T01:10:44;4.60;;;3.70;;
55647;SDS011;45266;48.756;9.246;2022-12-29T01:11:45;6.80;;;3.87;;
55647;SDS011;45266;48.756;9.246;2022-12-29T01:12:47;4.83;;;3.47;;
55647;SDS011;45266;48.756;9.246;2022-12-29T01:13:50;4.53;;;3.40;;
55647;SDS011;45266;48.756;9.246;2022-12-29T01:14:53;4.80;;;3.27;;
55647;SDS011;45266;48.756;9.246;2022-12-29T01:15:54;5.57;;;3.50;;
55647;SDS011;45266;48.756;9.246;2022-12-29T01:16:57;6.03;;;3.60;;
55647;SDS011;45266;48.756;9.246;2022-12-29T01:17:59;7.30;;;3.67;;
55647;SDS011;45266;48.756;9.246;2022-12-29T01:19:00;5.63;;;3.57;;
55647;SDS011;45266;48.756;9.246;2022-12-29T01:20:02;5.87;;;3.40;;
55647;SDS011;45266;48.756;9.246;2022-12-29T01:21:05;4.33;;;3.30;;
55647;SDS011;45266;48.756;9.246;2022-12-29T01:22:07;4.37;;;3.00;;
55647;SDS011;45266;48.756;9.246;2022-12-29T01:23:09;6.77;;;3.50;;
55647;SDS011;45266;48.756;9.246;2022-12-29T01:24:10;5.37;;;3.87;;
55647;SDS011;45266;48.756;9.246;2022-12-29T01:25:12;4.77;;;3.43;;
55647;SDS011;45266;48.756;9.246;2022-12-29T01:26:15;5.10;;;3.53;;
55647;SDS011;45266;48.756;9.246;2022-12-29T01:27:18;4.53;;;3.10;;
55647;SDS011;45266;48.756;9.246;2022-12-29T01:28:20;6.00;;;3.40;;
55647;SDS011;45266;48.756;9.246;2022-12-29T01:29:26;5.43;;;3.17;;
55647;SDS011;45266;48.756;9.246;2022-12-29T01:30:28;6.03;;;3.50;;
55647;SDS011;45266;48.756;9.246;2022-12-29T01:31:30;4.57;;;3.20;;
55647;SDS011;45266;48.756;9.246;2022-12-29T01:32:31;4.23;;;3.13;;
55647;SDS011;45266;48.756;9.246;2022-12-29T01:33:33;5.00;;;3.33;;
55647;SDS011;45266;48.756;9.246;2022-12-29T01:34:35;4.97;;;3.03;;
55647;SDS011;45266;48.756;9.246;2022-12-29T01:35:37;5.53;;;3.10;;
55647;SDS011;45266;48.756;9.246;2022-12-29T01:36:38;5.17;;;3.40;;
55647;SDS011;45266;48.756;9.246;2022-12-29T01:37:40;8.00;;;3.43;;
55647;SDS011;45266;48.756;9.246;2022-12-29T01:38:42;5.67;;;3.70;;
55647;SDS011;45266;48.756;9.246;2022-12-29T01:39:44;3.90;;;3.00;;
55647;SDS011;45266;48.756;9.246;2022-12-29T01:40:46;5.37;;;3.20;;
55647;SDS011;45266;48.756;9.246;2022-12-29T01:41:49;4.77;;;3.40;;
55647;SDS011;45266;48.756;9.246;2022-12-29T01:42:50;4.60;;;3.83;;
55647;SDS011;45266;48.756;9.246;2022-12-29T01:43:56;6.87;;;3.50;;
55647;SDS011;45266;48.756;9.246;2022-12-29T01:45:08;4.33;;;3.50;;
55647;SDS011;45266;48.756;9.246;2022-12-29T01:48:39;5.50;;;3.57;;
55647;SDS011;45266;48.756;9.246;2022-12-29T01:49:42;4.07;;;3.40;;
55647;SDS011;45266;48.756;9.246;2022-12-29T01:50:50;5.20;;;3.77;;
55647;SDS011;45266;48.756;9.246;2022-12-29T01:51:55;4.93;;;3.73;;
55647;SDS011;45266;48.756;9.246;2022-12-29T01:53:14;4.53;;;3.30;;
55647;SDS011;45266;48.756;9.246;2022-12-29T01:54:30;5.07;;;3.53;;
55647;SDS011;45266;48.756;9.246;2022-12-29T01:55:49;5.57;;;3.87;;
55647;SDS011;45266;48.756;9.246;2022-12-29T01:56:55;5.57;;;4.00;;
55647;SDS011;45266;48.756;9.246;2022-12-29T01:58:00;4.87;;;3.40;;
55647;SDS011;45266;48.756;9.246;2022-12-29T01:59:15;5.53;;;3.70;;
55647;SDS011;45266;48.756;9.246;2022-12-29T02:00:22;6.83;;;4.23;;
55647;SDS011;45266;48.756;9.246;2022-12-29T02:01:24;5.10;;;3.73;;
55647;SDS011;45266;48.756;9.246;2022-12-29T02:02:26;6.13;;;3.97;;
55647;SDS011;45266;48.756;9.246;2022-12-29T02:03:33;6.10;;;3.87;;
55647;SDS011;45266;48.756;9.246;2022-12-29T02:04:38;6.00;;;4.40;;
55647;SDS011;45266;48.756;9.246;2022-12-29T02:05:47;5.87;;;3.60;;
55647;SDS011;45266;48.756;9.246;2022-12-29T02:07:07;5.33;;;3.70;;
55647;SDS011;45266;48.756;9.246;2022-12-29T02:08:12;5.43;;;3.80;;
55647;SDS011;45266;48.756;9.246;2022-12-29T02:09:14;4.37;;;3.83;;
55647;SDS011;45266;48.756;9.246;2022-12-29T02:10:21;6.83;;;3.77;;
55647;SDS011;45266;48.756;9.246;2022-12-29T02:11:26;5.00;;;4.07;;
55647;SDS011;45266;48.756;9.246;2022-12-29T02:12:31;7.83;;;3.80;;
55647;SDS011;45266;48.756;9.246;2022-12-29T02:13:33;6.83;;;4.03;;
55647;SDS011;45266;48.756;9.246;2022-12-29T02:14:35;4.00;;;3.60;;
55647;SDS011;45266;48.756;9.246;2022-12-29T02:15:42;4.43;;;3.77;;
55647;SDS011;45266;48.756;9.246;2022-12-29T02:20:11;6.57;;;3.47;;
55647;SDS011;45266;48.756;9.246;2022-12-29T02:23:10;6.03;;;3.57;;
55647;SDS011;45266;48.756;9.246;2022-12-29T02:29:59;7.43;;;3.17;;
55647;SDS011;45266;48.756;9.246;2022-12-29T02:31:17;5.13;;;3.10;;
55647;SDS011;45266;48.756;9.246;2022-12-29T02:34:00;4.10;;;2.90;;
55647;SDS011;45266;48.756;9.246;2022-12-29T02:36:30;3.30;;;3.00;;
55647;SDS011;45266;48.756;9.246;2022-12-29T02:39:38;3.73;;;2.80;;
55647;SDS011;45266;48.756;9.246;2022-12-29T02:43:43;3.13;;;2.73;;
55647;SDS011;45266;48.756;9.246;2022-12-29T02:45:02;8.83;;;3.10;;
55647;SDS011;45266;48.756;9.246;2022-12-29T02:48:08;3.70;;;2.80;;
55647;SDS011;45266;48.756;9.246;2022-12-29T02:49:36;4.53;;;2.63;;
55647;SDS011;45266;48.756;9.246;2022-12-29T02:50:47;4.27;;;2.60;;
55647;SDS011;45266;48.756;9.246;2022-12-29T02:52:12;3.17;;;2.23;;
55647;SDS011;45266;48.756;9.246;2022-12-29T02:53:19;2.93;;;2.53;;
55647;SDS011;45266;48.756;9.246;2022-12-29T02:54:42;4.63;;;2.80;;
55647;SDS011;45266;48.756;9.246;2022-12-29T02:55:47;5.70;;;3.03;;
55647;SDS011;45266;48.756;9.246;2022-12-29T02:56:50;4.17;;;2.80;;
55647;SDS011;45266;48.756;9.246;2022-12-29T02:59:15;5.33;;;2.57;;
55647;SDS011;45266;48.756;9.246;2022-12-29T03:00:18;4.73;;;2.60;;
55647;SDS011;45266;48.756;9.246;2022-12-29T03:04:21;4.77;;;2.87;;
55647;SDS011;45266;48.756;9.246;2022-12-29T03:09:59;2.90;;;2.23;;
55647;SDS011;45266;48.756;9.246;2022-12-29T03:12:17;3.53;;;2.23;;
55647;SDS011;45266;48.756;9.246;2022-12-29T03:14:15;2.87;;;2.17;;
55647;SDS011;45266;48.756;9.246;2022-12-29T03:17:28;3.77;;;2.37;;
55647;SDS011;45266;48.756;9.246;2022-12-29T03:18:37;5.17;;;1.90;;
55647;SDS011;45266;48.756;9.246;2022-12-29T03:19:44;3.50;;;2.50;;
55647;SDS011;45266;48.756;9.246;2022-12-29T03:21:07;4.07;;;2.40;;
55647;SDS011;45266;48.756;9.246;2022-12-29T03:22:12;2.87;;;2.03;;
55647;SDS011;45266;48.756;9.246;2022-12-29T03:23:28;2.90;;;2.13;;
55647;SDS011;45266;48.756;9.246;2022-12-29T03:24:34;4.03;;;2.13;;
55647;SDS011;45266;48.756;9.246;2022-12-29T03:25:41;2.37;;;2.07;;
55647;SDS011;45266;48.756;9.246;2022-12-29T03:26:46;3.43;;;2.10;;
55647;SDS011;45266;48.756;9.246;2022-12-29T03:27:51;4.33;;;2.30;;
55647;SDS011;45266;48.756;9.246;2022-12-29T03:28:56;5.57;;;2.40;;
55647;SDS011;45266;48.756;9.246;2022-12-29T03:30:00;4.57;;;1.93;;
55647;SDS011;45266;48.756;9.246;2022-12-29T03:31:06;4.37;;;2.30;;
55647;SDS011;45266;48.756;9.246;2022-12-29T03:32:10;2.70;;;2.10;;
55647;SDS011;45266;48.756;9.246;2022-12-29T03:33:15;2.90;;;2.13;;
55647;SDS011;45266;48.756;9.246;2022-12-29T03:34:20;2.40;;;1.80;;
55647;SDS011;45266;48.756;9.246;2022-12-29T03:35:24;2.27;;;1.80;;
55647;SDS011;45266;48.756;9.246;2022-12-29T03:36:33;2.53;;;2.23;;
55647;SDS011;45266;48.756;9.246;2022-12-29T03:37:45;4.40;;;2.03;;
55647;SDS011;45266;48.756;9.246;2022-12-29T03:38:58;3.53;;;2.03;;
55647;SDS011;45266;48.756;9.246;2022-12-29T03:40:03;3.73;;;2.20;;
55647;SDS011;45266;48.756;9.246;2022-12-29T03:41:07;3.03;;;2.20;;
55647;SDS011;45266;48.756;9.246;2022-12-29T03:42:17;3.30;;;2.00;;
55647;SDS011;45266;48.756;9.246;2022-12-29T03:43:22;3.63;;;1.87;;
55647;SDS011;45266;48.756;9.246;2022-12-29T03:44:31;4.70;;;2.07;;
55647;SDS011;45266;48.756;9.246;2022-12-29T03:45:35;3.87;;;2.37;;
55647;SDS011;45266;48.756;9.246;2022-12-29T03:46:37;3.63;;;2.27;;
55647;SDS011;45266;48.756;9.246;2022-12-29T03:47:39;4.10;;;1.90;;
55647;SDS011;45266;48.756;9.246;2022-12-29T03:48:41;5.20;;;2.40;;
55647;SDS011;45266;48.756;9.246;2022-12-29T03:49:43;2.20;;;1.87;;
55647;SDS011;45266;48.756;9.246;2022-12-29T03:50:45;2.37;;;1.67;;
55647;SDS011;45266;48.756;9.246;2022-12-29T03:51:46;4.60;;;2.30;;
55647;SDS011;45266;48.756;9.246;2022-12-29T03:52:52;3.80;;;1.73;;
55647;SDS011;45266;48.756;9.246;2022-12-29T03:53:53;3.27;;;2.13;;
55647;SDS011;45266;48.756;9.246;2022-12-29T03:54:55;2.87;;;1.97;;
55647;SDS011;45266;48.756;9.246;2022-12-29T03:55:57;2.93;;;2.10;;
55647;SDS011;45266;48.756;9.246;2022-12-29T03:56:59;4.77;;;1.93;;
55647;SDS011;45266;48.756;9.246;2022-12-29T03:58:01;3.43;;;1.87;;
55647;SDS011;45266;48.756;9.246;2022-12-29T03:59:02;1.93;;;1.73;;
55647;SDS011;45266;48.756;9.246;2022-12-29T04:00:04;2.93;;;1.83;;
55647;SDS011;45266;48.756;9.246;2022-12-29T04:01:07;5.33;;;1.87;;
55647;SDS011;45266;48.756;9.246;2022-12-29T04:02:09;4.60;;;1.80;;
55647;SDS011;45266;48.756;9.246;2022-12-29T04:03:11;3.93;;;2.13;;
55647;SDS011;45266;48.756;9.246;2022-12-29T04:04:13;3.30;;;2.13;;
55647;SDS011;45266;48.756;9.246;2022-12-29T04:05:15;3.07;;;1.63;;
55647;SDS011;45266;48.756;9.246;2022-12-29T04:06:17;2.10;;;1.70;;
55647;SDS011;45266;48.756;9.246;2022-12-29T04:07:18;7.17;;;1.93;;
55647;SDS011;45266;48.756;9.246;2022-12-29T04:08:20;2.30;;;1.73;;
55647;SDS011;45266;48.756;9.246;2022-12-29T04:09:22;2.53;;;1.70;;
55647;SDS011;45266;48.756;9.246;2022-12-29T04:10:23;2.67;;;1.80;;
55647;SDS011;45266;48.756;9.246;2022-12-29T04:11:25;3.70;;;1.80;;
55647;SDS011;45266;48.756;9.246;2022-12-29T04:12:33;2.67;;;1.80;;
55647;SDS011;45266;48.756;9.246;2022-12-29T04:13:35;5.63;;;1.83;;
55647;SDS011;45266;48.756;9.246;2022-12-29T04:14:36;2.37;;;1.63;;
55647;SDS011;45266;48.756;9.246;2022-12-29T04:15:38;3.60;;;1.60;;
55647;SDS011;45266;48.756;9.246;2022-12-29T04:16:40;3.93;;;1.80;;
55647;SDS011;45266;48.756;9.246;2022-12-29T04:17:42;3.83;;;1.67;;
55647;SDS011;45266;48.756;9.246;2022-12-29T04:18:44;2.43;;;1.60;;
55647;SDS011;45266;48.756;9.246;2022-12-29T04:19:45;3.13;;;1.63;;
55647;SDS011;45266;48.756;9.246;2022-12-29T04:20:47;2.97;;;1.63;;
55647;SDS011;45266;48.756;9.246;2022-12-29T04:22:01;4.47;;;2.00;;
55647;SDS011;45266;48.756;9.246;2022-12-29T04:23:03;2.83;;;1.77;;
55647;SDS011;45266;48.756;9.246;2022-12-29T04:24:06;1.47;;;1.33;;
55647;SDS011;45266;48.756;9.246;2022-12-29T04:25:08;2.57;;;1.60;;
55647;SDS011;45266;48.756;9.246;2022-12-29T04:26:10;2.87;;;1.83;;
55647;SDS011;45266;48.756;9.246;2022-12-29T04:27:12;2.00;;;1.57;;
55647;SDS011;45266;48.756;9.246;2022-12-29T04:28:15;4.57;;;1.70;;
55647;SDS011;45266;48.756;9.246;2022-12-29T04:29:18;4.23;;;1.70;;
55647;SDS011;45266;48.756;9.246;2022-12-29T04:30:20;4.17;;;1.90;;
55647;SDS011;45266;48.756;9.246;2022-12-29T04:31:22;4.27;;;1.60;;
55647;SDS011;45266;48.756;9.246;2022-12-29T04:32:24;4.27;;;1.80;;
55647;SDS011;45266;48.756;9.246;2022-12-29T04:33:26;2.00;;;1.50;;
55647;SDS011;45266;48.756;9.246;2022-12-29T04:34:28;3.33;;;2.27;;
55647;SDS011;45266;48.756;9.246;2022-12-29T04:35:29;5.27;;;2.67;;
55647;SDS011;45266;48.756;9.246;2022-12-29T04:36:31;4.57;;;2.70;;
55647;SDS011;45266;48.756;9.246;2022-12-29T04:37:33;3.00;;;1.70;;
55647;SDS011;45266;48.756;9.246;2022-12-29T04:38:35;3.97;;;1.90;;
55647;SDS011;45266;48.756;9.246;2022-12-29T04:39:37;2.77;;;2.00;;
55647;SDS011;45266;48.756;9.246;2022-12-29T04:40:39;1.73;;;1.53;;
55647;SDS011;45266;48.756;9.246;2022-12-29T04:41:42;4.87;;;1.70;;
55647;SDS011;45266;48.756;9.246;2022-12-29T04:42:43;5.63;;;2.10;;
55647;SDS011;45266;48.756;9.246;2022-12-29T04:43:45;2.40;;;1.50;;
55647;SDS011;45266;48.756;9.246;2022-12-29T04:44:47;3.40;;;1.60;;
55647;SDS011;45266;48.756;9.246;2022-12-29T04:45:49;2.27;;;1.80;;
55647;SDS011;45266;48.756;9.246;2022-12-29T04:46:50;3.23;;;1.90;;
55647;SDS011;45266;48.756;9.246;2022-12-29T04:47:52;4.73;;;2.10;;
55647;SDS011;45266;48.756;9.246;2022-12-29T04:48:54;4.43;;;1.90;;
55647;SDS011;45266;48.756;9.246;2022-12-29T04:49:56;2.03;;;1.70;;
55647;SDS011;45266;48.756;9.246;2022-12-29T04:50:58;2.40;;;1.60;;
55647;SDS011;45266;48.756;9.246;2022-12-29T04:51:59;3.23;;;1.70;;
55647;SDS011;45266;48.756;9.246;2022-12-29T04:53:01;3.10;;;1.77;;
55647;SDS011;45266;48.756;9.246;2022-12-29T04:54:03;3.17;;;1.70;;
55647;SDS011;45266;48.756;9.246;2022-12-29T04:55:06;4.63;;;2.03;;
55647;SDS011;45266;48.756;9.246;2022-12-29T04:56:08;2.07;;;1.80;;
55647;SDS011;45266;48.756;9.246;2022-12-29T04:57:10;2.43;;;1.70;;
55647;SDS011;45266;48.756;9.246;2022-12-29T04:58:12;2.07;;;1.63;;
55647;SDS011;45266;48.756;9.246;2022-12-29T04:59:22;2.03;;;1.70;;
55647;SDS011;45266;48.756;9.246;2022-12-29T05:00:24;3.60;;;1.70;;
55647;SDS011;45266;48.756;9.246;2022-12-29T05:01:25;4.80;;;2.20;;
55647;SDS011;45266;48.756;9.246;2022-12-29T05:02:27;3.03;;;1.83;;
55647;SDS011;45266;48.756;9.246;2022-12-29T05:03:29;4.70;;;1.73;;
55647;SDS011;45266;48.756;9.246;2022-12-29T05:04:31;3.70;;;1.97;;
55647;SDS011;45266;48.756;9.246;2022-12-29T05:05:33;5.10;;;2.20;;
55647;SDS011;45266;48.756;9.246;2022-12-29T05:06:35;2.60;;;1.97;;
55647;SDS011;45266;48.756;9.246;2022-12-29T05:07:37;4.03;;;1.97;;
55647;SDS011;45266;48.756;9.246;2022-12-29T05:08:39;3.23;;;1.93;;
55647;SDS011;45266;48.756;9.246;2022-12-29T05:09:41;4.40;;;2.60;;
55647;SDS011;45266;48.756;9.246;2022-12-29T05:10:44;3.30;;;1.77;;
55647;SDS011;45266;48.756;9.246;2022-12-29T05:11:46;5.60;;;2.10;;
55647;SDS011;45266;48.756;9.246;2022-12-29T05:12:48;2.70;;;1.97;;
55647;SDS011;45266;48.756;9.246;2022-12-29T05:13:50;4.23;;;2.10;;
55647;SDS011;45266;48.756;9.246;2022-12-29T05:14:51;3.60;;;1.87;;
55647;SDS011;45266;48.756;9.246;2022-12-29T05:15:53;3.80;;;1.93;;
55647;SDS011;45266;48.756;9.246;2022-12-29T05:16:55;5.00;;;1.87;;
55647;SDS011;45266;48.756;9.246;2022-12-29T05:17:57;3.07;;;1.90;;
55647;SDS011;45266;48.756;9.246;2022-12-29T05:18:58;4.07;;;2.17;;
55647;SDS011;45266;48.756;9.246;2022-12-29T05:20:00;2.70;;;2.30;;
55647;SDS011;45266;48.756;9.246;2022-12-29T05:21:02;3.63;;;2.20;;
55647;SDS011;45266;48.756;9.246;2022-12-29T05:22:04;5.67;;;2.50;;
55647;SDS011;45266;48.756;9.246;2022-12-29T05:23:06;4.10;;;2.20;;
55647;SDS011;45266;48.756;9.246;2022-12-29T05:24:07;5.67;;;2.50;;
55647;SDS011;45266;48.756;9.246;2022-12-29T05:25:10;2.10;;;1.83;;
55647;SDS011;45266;48.756;9.246;2022-12-29T05:26:12;3.97;;;2.40;;
55647;SDS011;45266;48.756;9.246;2022-12-29T05:27:14;3.37;;;2.17;;
55647;SDS011;45266;48.756;9.246;2022-12-29T05:28:17;3.63;;;2.13;;
55647;SDS011;45266;48.756;9.246;2022-12-29T05:29:19;3.43;;;2.10;;
55647;SDS011;45266;48.756;9.246;2022-12-29T05:30:21;5.23;;;2.77;;
55647;SDS011;45266;48.756;9.246;2022-12-29T05:31:22;2.20;;;2.00;;
55647;SDS011;45266;48.756;9.246;2022-12-29T05:32:24;4.97;;;2.20;;
55647;SDS011;45266;48.756;9.246;2022-12-29T05:33:26;4.80;;;2.10;;
55647;SDS011;45266;48.756;9.246;2022-12-29T05:34:28;3.77;;;2.37;;
55647;SDS011;45266;48.756;9.246;2022-12-29T05:35:29;4.07;;;2.40;;
55647;SDS011;45266;48.756;9.246;2022-12-29T05:36:33;5.30;;;2.40;;
55647;SDS011;45266;48.756;9.246;2022-12-29T05:37:38;2.00;;;1.80;;
55647;SDS011;45266;48.756;9.246;2022-12-29T05:38:40;4.27;;;2.47;;
55647;SDS011;45266;48.756;9.246;2022-12-29T05:39:41;2.53;;;1.97;;
55647;SDS011;45266;48.756;9.246;2022-12-29T05:40:43;5.57;;;2.27;;
55647;SDS011;45266;48.756;9.246;2022-12-29T05:41:45;3.87;;;2.07;;
55647;SDS011;45266;48.756;9.246;2022-12-29T05:42:47;3.53;;;2.00;;
55647;SDS011;45266;48.756;9.246;2022-12-29T05:43:49;5.57;;;2.10;;
55647;SDS011;45266;48.756;9.246;2022-12-29T05:44:50;5.03;;;2.60;;
55647;SDS011;45266;48.756;9.246;2022-12-29T05:45:55;3.13;;;2.10;;
55647;SDS011;45266;48.756;9.246;2022-12-29T05:46:57;5.63;;;2.20;;
55647;SDS011;45266;48.756;9.246;2022-12-29T05:47:59;4.93;;;2.47;;
55647;SDS011;45266;48.756;9.246;2022-12-29T05:49:01;6.43;;;2.17;;
55647;SDS011;45266;48.756;9.246;2022-12-29T05:50:03;6.00;;;2.30;;
55647;SDS011;45266;48.756;9.246;2022-12-29T05:51:05;6.00;;;2.60;;
55647;SDS011;45266;48.756;9.246;2022-12-29T05:52:07;2.93;;;2.43;;
55647;SDS011;45266;48.756;9.246;2022-12-29T05:53:09;2.73;;;2.20;;
55647;SDS011;45266;48.756;9.246;2022-12-29T05:54:11;4.00;;;2.40;;
55647;SDS011;45266;48.756;9.246;2022-12-29T05:55:13;4.70;;;2.30;;
55647;SDS011;45266;48.756;9.246;2022-12-29T05:56:15;3.73;;;2.20;;
55647;SDS011;45266;48.756;9.246;2022-12-29T05:57:17;4.37;;;2.17;;
55647;SDS011;45266;48.756;9.246;2022-12-29T05:58:19;4.13;;;2.40;;
55647;SDS011;45266;48.756;9.246;2022-12-29T05:59:21;3.43;;;2.40;;
55647;SDS011;45266;48.756;9.246;2022-12-29T06:00:23;3.77;;;2.63;;
55647;SDS011;45266;48.756;9.246;2022-12-29T06:01:25;3.33;;;2.40;;
55647;SDS011;45266;48.756;9.246;2022-12-29T06:02:27;3.77;;;2.33;;
55647;SDS011;45266;48.756;9.246;2022-12-29T06:03:29;4.73;;;3.63;;
55647;SDS011;45266;48.756;9.246;2022-12-29T06:04:31;4.87;;;3.00;;
55647;SDS011;45266;48.756;9.246;2022-12-29T06:05:33;5.67;;;2.80;;
55647;SDS011;45266;48.756;9.246;2022-12-29T06:06:34;3.60;;;2.50;;
55647;SDS011;45266;48.756;9.246;2022-12-29T06:07:36;6.00;;;2.50;;
55647;SDS011;45266;48.756;9.246;2022-12-29T06:08:38;5.17;;;2.20;;
55647;SDS011;45266;48.756;9.246;2022-12-29T06:09:40;7.43;;;2.47;;
55647;SDS011;45266;48.756;9.246;2022-12-29T06:10:42;4.50;;;2.33;;
55647;SDS011;45266;48.756;9.246;2022-12-29T06:11:43;3.03;;;2.30;;
55647;SDS011;45266;48.756;9.246;2022-12-29T06:12:45;6.57;;;2.40;;
55647;SDS011;45266;48.756;9.246;2022-12-29T06:13:48;5.13;;;2.30;;
55647;SDS011;45266;48.756;9.246;2022-12-29T06:14:49;3.70;;;2.50;;
55647;SDS011;45266;48.756;9.246;2022-12-29T06:15:51;2.00;;;1.80;;
55647;SDS011;45266;48.756;9.246;2022-12-29T06:16:53;4.37;;;2.13;;
55647;SDS011;45266;48.756;9.246;2022-12-29T06:17:55;2.90;;;2.20;;
55647;SDS011;45266;48.756;9.246;2022-12-29T06:18:57;6.07;;;3.73;;
55647;SDS011;45266;48.756;9.246;2022-12-29T06:19:58;3.43;;;2.53;;
55647;SDS011;45266;48.756;9.246;2022-12-29T06:21:01;4.63;;;2.53;;
55647;SDS011;45266;48.756;9.246;2022-12-29T06:22:03;3.43;;;2.27;;
55647;SDS011;45266;48.756;9.246;2022-12-29T06:23:06;4.03;;;2.10;;
55647;SDS011;45266;48.756;9.246;2022-12-29T06:24:08;4.33;;;2.13;;
55647;SDS011;45266;48.756;9.246;2022-12-29T06:25:12;3.10;;;1.80;;
55647;SDS011;45266;48.756;9.246;2022-12-29T06:26:14;2.40;;;1.80;;
55647;SDS011;45266;48.756;9.246;2022-12-29T06:27:16;2.13;;;1.60;;
55647;SDS011;45266;48.756;9.246;2022-12-29T06:28:18;3.90;;;1.77;;
55647;SDS011;45266;48.756;9.246;2022-12-29T06:29:20;3.50;;;2.00;;
55647;SDS011;45266;48.756;9.246;2022-12-29T06:30:21;3.73;;;1.80;;
55647;SDS011;45266;48.756;9.246;2022-12-29T06:31:23;2.70;;;1.80;;
55647;SDS011;45266;48.756;9.246;2022-12-29T06:32:25;1.93;;;1.70;;
55647;SDS011;45266;48.756;9.246;2022-12-29T06:33:27;3.50;;;2.00;;
55647;SDS011;45266;48.756;9.246;2022-12-29T06:34:29;2.40;;;1.87;;
55647;SDS011;45266;48.756;9.246;2022-12-29T06:35:30;2.37;;;1.63;;
55647;SDS011;45266;48.756;9.246;2022-12-29T06:36:32;2.50;;;1.57;;
55647;SDS011;45266;48.756;9.246;2022-12-29T06:37:34;2.97;;;2.10;;
55647;SDS011;45266;48.756;9.246;2022-12-29T06:38:36;3.40;;;1.90;;
55647;SDS011;45266;48.756;9.246;2022-12-29T06:39:38;2.33;;;1.77;;
55647;SDS011;45266;48.756;9.246;2022-12-29T06:40:39;2.53;;;1.87;;
55647;SDS011;45266;48.756;9.246;2022-12-29T06:41:43;2.87;;;2.00;;
55647;SDS011;45266;48.756;9.246;2022-12-29T06:42:45;3.17;;;2.50;;
55647;SDS011;45266;48.756;9.246;2022-12-29T06:43:47;4.73;;;2.30;;
55647;SDS011;45266;48.756;9.246;2022-12-29T06:44:48;3.87;;;2.17;;
55647;SDS011;45266;48.756;9.246;2022-12-29T06:45:50;4.13;;;1.83;;
55647;SDS011;45266;48.756;9.246;2022-12-29T06:46:52;3.23;;;1.70;;
55647;SDS011;45266;48.756;9.246;2022-12-29T06:47:54;4.43;;;1.90;;
55647;SDS011;45266;48.756;9.246;2022-12-29T06:48:56;2.77;;;2.10;;
55647;SDS011;45266;48.756;9.246;2022-12-29T06:49:57;2.30;;;1.83;;
55647;SDS011;45266;48.756;9.246;2022-12-29T06:50:59;3.53;;;1.90;;
55647;SDS011;45266;48.756;9.246;2022-12-29T06:52:01;3.53;;;2.07;;
55647;SDS011;45266;48.756;9.246;2022-12-29T06:53:12;2.30;;;2.10;;
55647;SDS011;45266;48.756;9.246;2022-12-29T06:54:14;3.57;;;2.00;;
55647;SDS011;45266;48.756;9.246;2022-12-29T06:55:16;3.23;;;2.00;;
55647;SDS011;45266;48.756;9.246;2022-12-29T06:56:18;3.97;;;2.53;;
55647;SDS011;45266;48.756;9.246;2022-12-29T06:57:20;5.57;;;3.37;;
55647;SDS011;45266;48.756;9.246;2022-12-29T06:58:22;3.40;;;1.80;;
55647;SDS011;45266;48.756;9.246;2022-12-29T06:59:24;6.63;;;3.60;;
55647;SDS011;45266;48.756;9.246;2022-12-29T07:00:27;4.70;;;2.60;;
55647;SDS011;45266;48.756;9.246;2022-12-29T07:01:28;4.40;;;2.40;;
55647;SDS011;45266;48.756;9.246;2022-12-29T07:02:30;4.77;;;1.97;;
55647;SDS011;45266;48.756;9.246;2022-12-29T07:03:32;3.33;;;2.27;;
55647;SDS011;45266;48.756;9.246;2022-12-29T07:04:34;5.40;;;2.10;;
55647;SDS011;45266;48.756;9.246;2022-12-29T07:05:36;3.90;;;2.73;;